createdAt,value
2018-09-09T00:02:11.370Z,11.60
2018-09-09T00:04:40.162Z,11.51
2018-09-09T00:07:08.769Z,11.42
2018-09-09T00:09:42.486Z,11.40
2018-09-09T00:12:11.086Z,11.38
2018-09-09T00:14:39.739Z,11.42
2018-09-09T00:17:08.625Z,11.44
2018-09-09T00:19:37.285Z,11.46
2018-09-09T00:22:06.092Z,11.49
2018-09-09T00:24:35.858Z,11.57
2018-09-09T00:27:04.861Z,11.61
2018-09-09T00:29:33.630Z,11.64
2018-09-09T00:32:02.512Z,11.65
2018-09-09T00:34:31.105Z,11.59
2018-09-09T00:36:59.899Z,11.63
2018-09-09T00:39:28.742Z,11.56
2018-09-09T00:41:57.486Z,11.41
2018-09-09T00:44:26.174Z,11.32
2018-09-09T00:46:54.791Z,11.23
2018-09-09T00:49:28.571Z,11.17
2018-09-09T00:52:02.437Z,11.14
2018-09-09T00:54:31.113Z,11.07
2018-09-09T00:56:59.909Z,10.94
2018-09-09T00:59:28.731Z,10.84
2018-09-09T01:01:57.457Z,10.78
2018-09-09T01:04:26.123Z,10.78
2018-09-09T01:06:54.844Z,10.81
2018-09-09T01:09:27.788Z,10.85
2018-09-09T01:11:57.521Z,10.80
2018-09-09T01:14:28.169Z,10.77
2018-09-09T01:16:56.986Z,10.60
2018-09-09T01:19:25.723Z,10.51
2018-09-09T01:21:54.632Z,10.44
2018-09-09T01:24:23.980Z,10.47
2018-09-09T01:26:52.837Z,10.52
2018-09-09T01:29:21.631Z,10.51
2018-09-09T01:31:50.326Z,10.44
2018-09-09T01:34:19.011Z,10.35
2018-09-09T01:36:48.063Z,10.26
2018-09-09T01:39:16.815Z,10.32
2018-09-09T01:41:45.450Z,10.28
2018-09-09T01:44:14.082Z,10.35
2018-09-09T01:46:42.757Z,10.39
2018-09-09T01:49:11.450Z,10.38
2018-09-09T01:51:40.850Z,10.34
2018-09-09T01:54:09.586Z,10.26
2018-09-09T01:56:39.270Z,10.07
2018-09-09T01:59:07.970Z,10.07
2018-09-09T02:01:36.651Z,10.04
2018-09-09T02:04:05.283Z,9.99
2018-09-09T02:06:33.929Z,9.93
2018-09-09T02:09:02.689Z,9.88
2018-09-09T02:11:31.357Z,9.83
2018-09-09T02:14:00.357Z,9.77
2018-09-09T02:16:29.085Z,9.83
2018-09-09T02:18:57.787Z,9.84
2018-09-09T02:21:26.401Z,9.75
2018-09-09T02:23:55.024Z,9.77
2018-09-09T02:26:23.732Z,9.76
2018-09-09T02:28:53.020Z,9.74
2018-09-09T02:31:21.769Z,9.73
2018-09-09T02:33:50.378Z,9.75
2018-09-09T02:36:19.128Z,9.70
2018-09-09T02:38:47.900Z,9.61
2018-09-09T02:41:16.630Z,9.58
2018-09-09T02:43:45.414Z,9.56
2018-09-09T02:46:13.974Z,9.63
2018-09-09T02:48:42.688Z,9.69
2018-09-09T02:51:11.334Z,9.62
2018-09-09T02:53:40.109Z,9.58
2018-09-09T02:56:09.877Z,9.63
2018-09-09T02:58:38.669Z,9.58
2018-09-09T03:01:07.846Z,9.55
2018-09-09T03:03:37.493Z,9.56
2018-09-09T03:06:06.816Z,9.54
2018-09-09T03:08:35.491Z,9.48
2018-09-09T03:11:09.330Z,9.43
2018-09-09T03:13:38.027Z,9.39
2018-09-09T03:16:07.047Z,9.31
2018-09-09T03:18:35.762Z,9.26
2018-09-09T03:21:04.485Z,9.20
2018-09-09T03:23:34.314Z,9.08
2018-09-09T03:26:03.674Z,9.09
2018-09-09T03:28:33.148Z,9.08
2018-09-09T03:31:02.962Z,9.12
2018-09-09T03:33:31.665Z,9.12
2018-09-09T03:36:00.406Z,9.13
2018-09-09T03:38:29.320Z,9.12
2018-09-09T03:40:58.066Z,9.16
2018-09-09T03:43:26.703Z,9.27
2018-09-09T03:45:55.598Z,9.34
2018-09-09T03:48:24.466Z,9.35
2018-09-09T03:50:53.247Z,9.38
2018-09-09T03:53:21.881Z,9.36
2018-09-09T03:55:50.558Z,9.20
2018-09-09T03:58:19.663Z,9.20
2018-09-09T04:00:48.455Z,9.21
2018-09-09T04:03:17.403Z,9.17
2018-09-09T04:05:46.234Z,9.24
2018-09-09T04:08:15.740Z,9.27
2018-09-09T04:10:45.609Z,9.25
2018-09-09T04:13:14.983Z,9.25
2018-09-09T04:15:44.283Z,9.36
2018-09-09T04:18:14.499Z,9.52
2018-09-09T04:20:43.814Z,9.59
2018-09-09T04:23:13.494Z,9.68
2018-09-09T04:25:42.169Z,9.63
2018-09-09T04:28:11.013Z,9.62
2018-09-09T04:30:39.698Z,9.66
2018-09-09T04:33:08.377Z,9.61
2018-09-09T04:35:37.170Z,9.57
2018-09-09T04:38:05.829Z,9.59
2018-09-09T04:40:34.462Z,9.72
2018-09-09T04:43:03.837Z,9.84
2018-09-09T04:45:32.458Z,9.93
2018-09-09T04:48:02.068Z,9.99
2018-09-09T04:50:31.356Z,10.04
2018-09-09T04:53:00.017Z,10.12
2018-09-09T04:55:28.736Z,10.23
2018-09-09T04:57:57.450Z,10.32
2018-09-09T05:00:27.361Z,10.42
2018-09-09T05:02:56.715Z,10.48
2018-09-09T05:05:25.357Z,10.59
2018-09-09T05:07:56.797Z,10.67
2018-09-09T05:10:25.755Z,10.77
2018-09-09T05:12:55.468Z,10.82
2018-09-09T05:15:24.301Z,10.89
2018-09-09T05:17:52.934Z,10.93
2018-09-09T05:20:22.033Z,10.99
2018-09-09T05:22:50.762Z,11.09
2018-09-09T05:25:19.472Z,11.19
2018-09-09T05:27:48.107Z,11.36
2018-09-09T05:30:17.035Z,11.50
2018-09-09T05:32:46.473Z,11.75
2018-09-09T05:35:21.743Z,11.89
2018-09-09T05:37:52.094Z,12.06
2018-09-09T05:40:21.627Z,12.21
2018-09-09T05:42:50.329Z,12.47
2018-09-09T05:45:18.987Z,12.76
2018-09-09T05:47:48.726Z,13.14
2018-09-09T05:50:17.425Z,13.40
2018-09-09T05:52:46.111Z,13.73
2018-09-09T05:55:15.428Z,13.92
2018-09-09T05:57:44.228Z,14.18
2018-09-09T06:00:14.022Z,14.31
2018-09-09T06:02:42.729Z,14.49
2018-09-09T06:05:11.424Z,14.65
2018-09-09T06:07:40.409Z,14.78
2018-09-09T06:10:09.065Z,14.95
2018-09-09T06:12:37.874Z,15.09
2018-09-09T06:15:07.690Z,15.28
2018-09-09T06:17:37.185Z,15.34
2018-09-09T06:20:06.045Z,15.42
2018-09-09T06:22:34.919Z,15.61
2018-09-09T06:25:03.547Z,15.71
2018-09-09T06:27:32.301Z,15.73
2018-09-09T06:30:00.886Z,15.69
2018-09-09T06:32:29.814Z,15.66
2018-09-09T06:34:58.541Z,15.61
2018-09-09T06:37:27.357Z,15.66
2018-09-09T06:39:55.985Z,15.64
2018-09-09T06:42:24.723Z,15.64
2018-09-09T06:44:53.617Z,15.77
2018-09-09T06:47:22.302Z,15.83
2018-09-09T06:49:51.894Z,15.83
2018-09-09T06:52:22.330Z,15.85
2018-09-09T06:54:51.472Z,15.86
2018-09-09T06:57:20.786Z,15.96
2018-09-09T06:59:49.506Z,16.00
2018-09-09T07:02:18.338Z,16.01
2018-09-09T07:04:47.586Z,16.02
2018-09-09T07:07:16.542Z,16.04
2018-09-09T07:09:45.217Z,16.05
2018-09-09T07:12:14.695Z,16.13
2018-09-09T07:14:43.418Z,16.22
2018-09-09T07:17:12.192Z,16.39
2018-09-09T07:19:40.937Z,16.54
2018-09-09T07:22:09.689Z,16.67
2018-09-09T07:24:38.305Z,16.84
2018-09-09T07:27:07.317Z,17.10
2018-09-09T07:29:36.305Z,17.32
2018-09-09T07:32:05.973Z,17.53
2018-09-09T07:34:34.707Z,17.65
2018-09-09T07:37:03.446Z,17.75
2018-09-09T07:39:32.773Z,17.81
2018-09-09T07:42:01.419Z,17.81
2018-09-09T07:44:30.162Z,17.87
2018-09-09T07:46:58.917Z,17.96
2018-09-09T07:49:29.154Z,17.97
2018-09-09T07:51:58.137Z,18.06
2018-09-09T07:54:26.890Z,18.16
2018-09-09T07:56:56.633Z,18.23
2018-09-09T07:59:25.595Z,18.33
2018-09-09T08:01:54.308Z,18.46
2018-09-09T08:04:23.983Z,18.65
2018-09-09T08:06:52.681Z,18.84
2018-09-09T08:09:21.361Z,19.03
2018-09-09T08:11:50.074Z,19.27
2018-09-09T08:14:18.779Z,19.53
2018-09-09T08:16:47.732Z,19.78
2018-09-09T08:19:16.354Z,19.97
2018-09-09T08:21:45.054Z,20.25
2018-09-09T08:27:47.957Z,20.80
2018-09-09T08:30:17.313Z,20.93
2018-09-09T08:32:46.002Z,21.00
2018-09-09T08:35:14.675Z,21.05
2018-09-09T08:37:43.390Z,21.01
2018-09-09T08:40:13.115Z,20.99
2018-09-09T08:42:41.789Z,21.04
2018-09-09T08:45:10.619Z,21.10
2018-09-09T08:47:39.378Z,21.21
2018-09-09T08:50:08.069Z,21.36
2018-09-09T08:52:36.758Z,21.49
2018-09-09T08:55:05.540Z,21.63
2018-09-09T08:57:35.334Z,21.86
2018-09-09T09:00:04.105Z,22.12
2018-09-09T09:02:34.598Z,22.33
2018-09-09T09:05:03.270Z,22.52
2018-09-09T09:07:32.519Z,22.52
2018-09-09T09:10:01.846Z,22.55
2018-09-09T09:12:30.562Z,22.52
2018-09-09T09:14:59.193Z,22.54
2018-09-09T09:17:28.277Z,22.60
2018-09-09T09:19:58.438Z,22.56
2018-09-09T09:22:27.121Z,22.52
2018-09-09T09:24:55.890Z,22.56
2018-09-09T09:27:24.885Z,22.62
2018-09-09T09:29:58.794Z,22.82
2018-09-09T09:32:27.561Z,22.96
2018-09-09T09:34:57.081Z,23.10
2018-09-09T09:37:27.183Z,23.23
2018-09-09T09:39:56.267Z,23.40
2018-09-09T09:42:25.521Z,23.39
2018-09-09T09:44:54.393Z,23.51
2018-09-09T09:47:23.165Z,23.52
2018-09-09T09:49:51.996Z,23.57
2018-09-09T09:52:21.608Z,23.62
2018-09-09T09:54:50.589Z,23.84
2018-09-09T09:57:19.404Z,23.87
2018-09-09T09:59:48.690Z,23.92
2018-09-09T10:02:17.613Z,24.04
2018-09-09T10:04:46.298Z,23.91
2018-09-09T10:07:14.957Z,24.11
2018-09-09T10:09:43.657Z,24.36
2018-09-09T10:12:12.261Z,24.26
2018-09-09T10:14:42.917Z,24.11
2018-09-09T10:17:11.659Z,24.23
2018-09-09T10:19:40.634Z,24.39
2018-09-09T10:22:09.376Z,24.51
2018-09-09T10:24:38.161Z,24.64
2018-09-09T10:27:07.622Z,24.91
2018-09-09T10:29:37.184Z,25.06
2018-09-09T10:32:07.311Z,25.06
2018-09-09T10:34:36.106Z,25.01
2018-09-09T10:37:04.817Z,25.26
2018-09-09T10:39:33.602Z,25.46
2018-09-09T10:42:02.502Z,25.74
2018-09-09T10:44:31.250Z,25.97
2018-09-09T10:46:59.925Z,26.11
2018-09-09T10:49:28.752Z,26.06
2018-09-09T10:51:57.373Z,26.12
2018-09-09T10:54:26.174Z,26.05
2018-09-09T10:56:54.904Z,25.68
2018-09-09T10:59:23.661Z,25.61
2018-09-09T11:01:52.313Z,25.48
2018-09-09T11:04:20.994Z,25.56
2018-09-09T11:06:49.796Z,25.77
2018-09-09T11:09:18.459Z,26.13
2018-09-09T11:11:47.070Z,26.36
2018-09-09T11:14:15.801Z,26.50
2018-09-09T11:16:44.618Z,26.73
2018-09-09T11:19:13.461Z,27.04
2018-09-09T11:21:43.621Z,27.26
2018-09-09T11:24:12.440Z,26.94
2018-09-09T11:26:41.122Z,26.84
2018-09-09T11:29:09.722Z,26.98
2018-09-09T11:31:38.378Z,27.08
2018-09-09T11:34:07.099Z,27.40
2018-09-09T11:36:35.923Z,27.49
2018-09-09T11:39:06.170Z,28.05
2018-09-09T11:41:35.151Z,28.20
2018-09-09T11:44:03.961Z,28.49
2018-09-09T11:46:33.217Z,29.34
2018-09-09T11:49:02.222Z,29.29
2018-09-09T11:51:31.197Z,29.65
2018-09-09T11:54:01.265Z,30.14
2018-09-09T11:56:29.934Z,30.45
2018-09-09T11:58:59.501Z,30.93
2018-09-09T12:01:29.017Z,30.92
2018-09-09T12:03:57.732Z,30.95
2018-09-09T12:06:26.357Z,30.45
2018-09-09T12:08:55.015Z,29.19
2018-09-09T12:11:24.041Z,28.34
2018-09-09T12:13:52.804Z,27.81
2018-09-09T12:16:21.567Z,27.56
2018-09-09T12:18:51.458Z,27.59
2018-09-09T12:21:20.205Z,27.73
2018-09-09T12:23:48.828Z,27.26
2018-09-09T12:26:17.905Z,26.98
2018-09-09T12:28:47.917Z,27.04
2018-09-09T12:31:16.736Z,27.24
2018-09-09T12:33:45.534Z,27.34
2018-09-09T12:36:15.358Z,27.33
2018-09-09T12:38:44.055Z,27.31
2018-09-09T12:41:12.921Z,27.75
2018-09-09T12:43:46.869Z,28.30
2018-09-09T12:46:20.677Z,29.15
2018-09-09T12:48:54.816Z,29.60
2018-09-09T12:51:23.516Z,29.88
2018-09-09T12:53:52.344Z,29.99
2018-09-09T12:56:21.010Z,29.61
2018-09-09T12:58:50.626Z,29.31
2018-09-09T13:01:19.318Z,29.00
2018-09-09T13:03:48.939Z,29.02
2018-09-09T13:06:17.652Z,28.82
2018-09-09T13:08:46.405Z,28.49
2018-09-09T13:11:15.002Z,28.20
2018-09-09T13:13:43.802Z,27.55
2018-09-09T13:16:12.474Z,27.39
2018-09-09T13:18:41.157Z,27.48
2018-09-09T13:21:10.077Z,27.33
2018-09-09T13:23:38.698Z,27.36
2018-09-09T13:26:07.372Z,27.51
2018-09-09T13:28:35.945Z,27.71
2018-09-09T13:31:04.537Z,28.69
2018-09-09T13:33:33.847Z,29.55
2018-09-09T13:36:02.424Z,30.36
2018-09-09T13:38:31.751Z,31.19
2018-09-09T13:41:00.491Z,31.41
2018-09-09T13:43:29.330Z,31.32
2018-09-09T13:45:57.983Z,31.44
2018-09-09T13:48:26.724Z,32.04
2018-09-09T13:50:55.490Z,32.54
2018-09-09T13:53:24.161Z,33.02
2018-09-09T13:55:52.990Z,33.62
2018-09-09T13:58:22.025Z,34.39
2018-09-09T14:00:51.294Z,34.82
2018-09-09T14:03:20.101Z,33.59
2018-09-09T14:05:48.738Z,32.92
2018-09-09T14:08:17.556Z,32.41
2018-09-09T14:10:46.243Z,32.47
2018-09-09T14:13:14.990Z,32.64
2018-09-09T14:15:43.724Z,32.70
2018-09-09T14:18:12.583Z,32.66
2018-09-09T14:20:41.400Z,31.95
2018-09-09T14:23:10.225Z,31.58
2018-09-09T14:25:38.905Z,32.11
2018-09-09T14:28:07.569Z,32.81
2018-09-09T14:30:36.686Z,33.22
2018-09-09T14:33:05.324Z,32.39
2018-09-09T14:35:34.873Z,32.17
2018-09-09T14:38:03.574Z,31.89
2018-09-09T14:40:32.281Z,32.12
2018-09-09T14:43:00.928Z,32.14
2018-09-09T14:45:29.853Z,31.20
2018-09-09T14:47:58.521Z,30.43
2018-09-09T14:50:27.518Z,30.44
2018-09-09T14:52:56.172Z,30.49
2018-09-09T14:55:24.810Z,30.59
2018-09-09T14:57:53.537Z,29.42
2018-09-09T15:00:22.338Z,28.70
2018-09-09T15:02:51.093Z,28.60
2018-09-09T15:05:19.734Z,29.09
2018-09-09T15:07:50.034Z,29.28
2018-09-09T15:10:18.785Z,29.74
2018-09-09T15:12:50.448Z,29.40
2018-09-09T15:15:19.138Z,29.15
2018-09-09T15:17:47.850Z,29.00
2018-09-09T15:20:16.519Z,28.89
2018-09-09T15:22:45.190Z,28.90
2018-09-09T15:25:13.897Z,29.44
2018-09-09T15:27:42.511Z,29.86
2018-09-09T15:30:11.126Z,29.94
2018-09-09T15:32:39.874Z,29.57
2018-09-09T15:35:08.557Z,29.57
2018-09-09T15:37:37.230Z,29.80
2018-09-09T15:40:05.969Z,29.40
2018-09-09T15:42:34.620Z,29.21
2018-09-09T15:45:03.330Z,28.98
2018-09-09T15:47:33.060Z,29.01
2018-09-09T15:50:01.744Z,29.24
2018-09-09T15:52:30.478Z,29.23
2018-09-09T15:54:59.236Z,29.26
2018-09-09T15:57:28.237Z,29.35
2018-09-09T15:59:56.919Z,29.17
2018-09-09T16:02:25.679Z,28.62
2018-09-09T16:04:54.361Z,28.35
2018-09-09T16:07:23.218Z,28.30
2018-09-09T16:09:51.799Z,28.18
2018-09-09T16:12:20.555Z,27.65
2018-09-09T16:14:49.459Z,27.26
2018-09-09T16:17:18.198Z,26.87
2018-09-09T16:19:46.832Z,26.69
2018-09-09T16:22:15.445Z,26.50
2018-09-09T16:24:44.322Z,26.26
2018-09-09T16:27:13.079Z,26.16
2018-09-09T16:29:41.782Z,26.03
2018-09-09T16:32:10.461Z,25.85
2018-09-09T16:34:39.098Z,25.62
2018-09-09T16:37:07.850Z,25.45
2018-09-09T16:39:36.557Z,25.39
2018-09-09T16:42:05.233Z,25.29
2018-09-09T16:44:33.785Z,25.23
2018-09-09T16:47:02.437Z,25.05
2018-09-09T16:49:31.106Z,24.96
2018-09-09T16:51:59.798Z,24.83
2018-09-09T16:54:28.621Z,24.69
2018-09-09T16:56:57.606Z,24.48
2018-09-09T16:59:26.309Z,24.31
2018-09-09T17:01:55.309Z,24.16
2018-09-09T17:04:25.101Z,23.99
2018-09-09T17:06:53.869Z,23.84
2018-09-09T17:09:22.491Z,23.70
2018-09-09T17:11:51.148Z,23.53
2018-09-09T17:14:19.782Z,23.35
2018-09-09T17:16:48.675Z,23.17
2018-09-09T17:19:17.365Z,22.98
2018-09-09T17:21:47.258Z,22.85
2018-09-09T17:24:17.358Z,22.78
2018-09-09T17:26:46.077Z,22.78
2018-09-09T17:29:14.955Z,22.66
2018-09-09T17:31:43.811Z,22.56
2018-09-09T17:34:12.547Z,22.46
2018-09-09T17:36:44.013Z,22.31
2018-09-09T17:39:12.685Z,22.13
2018-09-09T17:41:42.447Z,22.00
2018-09-09T17:44:12.065Z,21.83
2018-09-09T17:46:42.801Z,21.74
2018-09-09T17:49:13.743Z,21.62
2018-09-09T17:51:43.058Z,21.45
2018-09-09T17:54:13.531Z,21.34
2018-09-09T17:56:43.903Z,21.27
2018-09-09T17:59:13.113Z,21.09
2018-09-09T18:01:42.427Z,20.87
2018-09-09T18:04:11.071Z,20.49
2018-09-09T18:06:40.392Z,20.21
2018-09-09T18:09:09.873Z,20.21
2018-09-09T18:11:38.848Z,20.20
2018-09-09T18:14:07.582Z,20.20
2018-09-09T18:16:36.161Z,20.08
2018-09-09T18:19:05.765Z,19.64
2018-09-09T18:21:34.363Z,19.34
2018-09-09T18:24:03.052Z,19.15
2018-09-09T18:26:31.741Z,18.96
2018-09-09T18:29:00.430Z,18.84
2018-09-09T18:31:29.401Z,18.64
2018-09-09T18:33:58.573Z,18.52
2018-09-09T18:36:28.633Z,18.37
2018-09-09T18:38:58.212Z,18.12
2018-09-09T18:41:26.839Z,17.94
2018-09-09T18:43:55.733Z,17.79
2018-09-09T18:46:24.338Z,17.76
2018-09-09T18:48:52.972Z,17.72
2018-09-09T18:51:21.685Z,17.75
2018-09-09T18:53:50.320Z,17.72
2018-09-09T18:56:18.942Z,17.65
2018-09-09T18:58:47.889Z,17.57
2018-09-09T19:01:18.496Z,17.49
2018-09-09T19:03:48.146Z,17.41
2018-09-09T19:06:16.797Z,17.41
2018-09-09T19:08:45.546Z,17.40
2018-09-09T19:11:14.827Z,17.40
2018-09-09T19:13:43.529Z,17.40
2018-09-09T19:16:12.891Z,17.36
2018-09-09T19:18:42.242Z,17.30
2018-09-09T19:21:12.435Z,17.25
2018-09-09T19:23:41.277Z,17.26
2018-09-09T19:26:10.256Z,17.22
2018-09-09T19:28:39.974Z,17.12
2018-09-09T19:31:08.822Z,16.99
2018-09-09T19:33:37.715Z,16.83
2018-09-09T19:36:06.430Z,16.70
2018-09-09T19:38:35.102Z,16.62
2018-09-09T19:41:04.584Z,16.61
2018-09-09T19:43:33.435Z,16.55
2018-09-09T19:46:02.298Z,16.52
2018-09-09T19:48:30.913Z,16.45
2018-09-09T19:51:02.130Z,16.36
2018-09-09T19:53:31.842Z,16.35
2018-09-09T19:56:01.282Z,16.32
2018-09-09T19:58:30.885Z,16.24
2018-09-09T20:00:59.751Z,16.15
2018-09-09T20:03:30.310Z,16.02
2018-09-09T20:06:00.715Z,16.04
2018-09-09T20:08:29.425Z,16.01
2018-09-09T20:10:58.853Z,16.02
2018-09-09T20:13:27.474Z,16.02
2018-09-09T20:15:57.376Z,15.99
2018-09-09T20:18:26.013Z,15.99
2018-09-09T20:20:54.719Z,15.94
2018-09-09T20:23:23.549Z,15.89
2018-09-09T20:25:52.365Z,15.91
2018-09-09T20:28:21.104Z,15.88
2018-09-09T20:30:49.749Z,15.92
2018-09-09T20:33:18.418Z,15.87
2018-09-09T20:35:47.914Z,15.86
2018-09-09T20:38:18.330Z,15.86
2018-09-09T20:40:47.040Z,15.84
2018-09-09T20:43:16.593Z,15.76
2018-09-09T20:45:45.754Z,15.70
2018-09-09T20:48:14.562Z,15.65
2018-09-09T20:50:44.067Z,15.59
2018-09-09T20:53:12.708Z,15.51
2018-09-09T20:55:41.403Z,15.55
2018-09-09T20:58:10.050Z,15.52
2018-09-09T21:00:40.013Z,15.40
2018-09-09T21:03:08.811Z,15.38
2018-09-09T21:05:38.302Z,15.32
2018-09-09T21:08:07.233Z,15.27
2018-09-09T21:10:36.012Z,15.25
2018-09-09T21:13:04.689Z,15.18
2018-09-09T21:15:33.478Z,15.04
2018-09-09T21:18:02.198Z,14.92
2018-09-09T21:20:30.941Z,14.87
2018-09-09T21:22:59.728Z,14.83
2018-09-09T21:25:28.485Z,14.88
2018-09-09T21:27:57.398Z,14.86
2018-09-09T21:30:26.082Z,14.79
2018-09-09T21:32:54.722Z,14.85
2018-09-09T21:35:23.369Z,14.82
2018-09-09T21:37:52.354Z,14.83
2018-09-09T21:40:21.093Z,14.81
2018-09-09T21:42:50.166Z,14.78
2018-09-09T21:45:19.818Z,14.81
2018-09-09T21:47:48.485Z,14.88
2018-09-09T21:50:17.239Z,14.94
2018-09-09T21:52:46.774Z,14.85
2018-09-09T21:55:15.591Z,14.81
2018-09-09T21:57:44.283Z,14.73
2018-09-09T22:00:13.886Z,14.65
2018-09-09T22:02:43.206Z,14.56
2018-09-09T22:05:11.814Z,14.53
2018-09-09T22:07:40.801Z,14.55
2018-09-09T22:10:10.541Z,14.56
2018-09-09T22:12:39.267Z,14.56
2018-09-09T22:15:08.589Z,14.57
2018-09-09T22:17:37.216Z,14.58
2018-09-09T22:20:05.921Z,14.54
2018-09-09T22:22:34.640Z,14.60
2018-09-09T22:25:03.495Z,14.61
2018-09-09T22:27:32.437Z,14.56
2018-09-09T22:30:01.740Z,14.45
2018-09-09T22:32:30.414Z,14.40
2018-09-09T22:34:59.261Z,14.38
2018-09-09T22:37:27.917Z,14.31
2018-09-09T22:39:56.621Z,14.27
2018-09-09T22:42:25.229Z,14.27
2018-09-09T22:44:53.885Z,14.27
2018-09-09T22:47:22.714Z,14.22
2018-09-09T22:49:51.497Z,14.18
2018-09-09T22:52:20.609Z,14.11
2018-09-09T22:54:49.405Z,14.05
2018-09-09T22:57:18.068Z,13.93
2018-09-09T22:59:46.742Z,13.83
2018-09-09T23:02:15.572Z,13.80
2018-09-09T23:04:44.351Z,13.88
2018-09-09T23:07:13.047Z,13.85
2018-09-09T23:09:41.850Z,13.86
2018-09-09T23:12:10.437Z,13.80
2018-09-09T23:14:39.162Z,13.79
2018-09-09T23:17:08.585Z,13.83
2018-09-09T23:19:37.317Z,13.80
2018-09-09T23:22:06.095Z,13.71
2018-09-09T23:24:34.790Z,13.59
2018-09-09T23:27:03.473Z,13.47
2018-09-09T23:29:32.165Z,13.39
2018-09-09T23:32:00.929Z,13.31
2018-09-09T23:34:29.780Z,13.20
2018-09-09T23:36:58.474Z,13.14
2018-09-09T23:39:27.057Z,13.11
2018-09-09T23:41:55.825Z,12.98
2018-09-09T23:44:24.618Z,12.91
2018-09-09T23:46:53.878Z,12.84
2018-09-09T23:49:22.608Z,12.90
2018-09-09T23:51:51.310Z,12.91
2018-09-09T23:54:20.050Z,12.96
2018-09-09T23:56:48.774Z,12.91
2018-09-09T23:59:17.515Z,12.86
